sensor_id;sensor_type;location;lat;lon;timestamp;pressure;altitude;pressure_sealevel;temperature;humidity
21234;BME280;10774;42.178;26.578;2022-11-21T00:00:53;99166.50;;;17.78;88.30
21234;BME280;10774;42.178;26.578;2022-11-21T00:03:19;99166.38;;;17.88;87.69
21234;BME280;10774;42.178;26.578;2022-11-21T00:05:46;99180.66;;;17.98;86.93
21234;BME280;10774;42.178;26.578;2022-11-21T00:08:17;99170.81;;;17.97;87.05
21234;BME280;10774;42.178;26.578;2022-11-21T00:10:42;99155.09;;;18.09;86.68
21234;BME280;10774;42.178;26.578;2022-11-21T00:13:15;99157.44;;;18.03;87.04
21234;BME280;10774;42.178;26.578;2022-11-21T00:15:40;99144.19;;;18.00;86.54
21234;BME280;10774;42.178;26.578;2022-11-21T00:18:06;99138.25;;;18.05;86.70
21234;BME280;10774;42.178;26.578;2022-11-21T00:20:31;99126.06;;;18.09;86.40
21234;BME280;10774;42.178;26.578;2022-11-21T00:22:56;99119.56;;;17.94;87.03
21234;BME280;10774;42.178;26.578;2022-11-21T00:25:22;99129.06;;;17.98;87.06
21234;BME280;10774;42.178;26.578;2022-11-21T00:27:47;99121.41;;;17.85;86.98
21234;BME280;10774;42.178;26.578;2022-11-21T00:30:13;99108.34;;;17.89;86.87
21234;BME280;10774;42.178;26.578;2022-11-21T00:32:39;99084.06;;;17.79;87.12
21234;BME280;10774;42.178;26.578;2022-11-21T00:35:05;99090.19;;;17.89;87.58
21234;BME280;10774;42.178;26.578;2022-11-21T00:37:32;99073.53;;;17.76;87.66
21234;BME280;10774;42.178;26.578;2022-11-21T00:39:57;99073.19;;;17.79;88.08
21234;BME280;10774;42.178;26.578;2022-11-21T00:42:23;99054.97;;;17.63;89.04
21234;BME280;10774;42.178;26.578;2022-11-21T00:44:49;99058.84;;;17.61;89.33
21234;BME280;10774;42.178;26.578;2022-11-21T00:47:14;99070.59;;;17.61;89.28
21234;BME280;10774;42.178;26.578;2022-11-21T00:49:39;99085.19;;;17.68;89.15
21234;BME280;10774;42.178;26.578;2022-11-21T00:52:05;99057.69;;;17.71;88.67
21234;BME280;10774;42.178;26.578;2022-11-21T00:54:30;99044.28;;;17.70;88.47
21234;BME280;10774;42.178;26.578;2022-11-21T00:56:56;99044.66;;;17.67;88.72
21234;BME280;10774;42.178;26.578;2022-11-21T00:59:21;99070.06;;;17.66;89.19
21234;BME280;10774;42.178;26.578;2022-11-21T01:01:47;99043.28;;;17.63;89.28
21234;BME280;10774;42.178;26.578;2022-11-21T01:04:12;99047.00;;;17.62;89.68
21234;BME280;10774;42.178;26.578;2022-11-21T01:06:37;99053.78;;;17.66;89.68
21234;BME280;10774;42.178;26.578;2022-11-21T01:09:03;99042.91;;;17.66;89.66
21234;BME280;10774;42.178;26.578;2022-11-21T01:11:29;99024.94;;;17.65;89.52
21234;BME280;10774;42.178;26.578;2022-11-21T01:13:54;99015.78;;;17.66;89.58
21234;BME280;10774;42.178;26.578;2022-11-21T01:16:22;99019.19;;;17.68;89.53
21234;BME280;10774;42.178;26.578;2022-11-21T01:18:48;99031.63;;;17.79;89.33
21234;BME280;10774;42.178;26.578;2022-11-21T01:21:22;99026.72;;;17.74;89.31
21234;BME280;10774;42.178;26.578;2022-11-21T01:23:48;99041.66;;;17.78;89.36
21234;BME280;10774;42.178;26.578;2022-11-21T01:26:16;99035.13;;;17.71;89.39
21234;BME280;10774;42.178;26.578;2022-11-21T01:28:42;99027.38;;;17.76;89.07
21234;BME280;10774;42.178;26.578;2022-11-21T01:31:13;99033.50;;;17.86;88.65
21234;BME280;10774;42.178;26.578;2022-11-21T01:33:39;99041.16;;;17.91;88.63
21234;BME280;10774;42.178;26.578;2022-11-21T01:36:13;99041.69;;;17.94;88.03
21234;BME280;10774;42.178;26.578;2022-11-21T01:38:40;99048.97;;;18.02;87.82
21234;BME280;10774;42.178;26.578;2022-11-21T01:41:07;99035.91;;;17.97;87.37
21234;BME280;10774;42.178;26.578;2022-11-21T01:43:32;99022.66;;;18.02;87.16
21234;BME280;10774;42.178;26.578;2022-11-21T01:46:00;99026.56;;;18.08;86.98
21234;BME280;10774;42.178;26.578;2022-11-21T01:48:38;99001.13;;;18.09;87.13
21234;BME280;10774;42.178;26.578;2022-11-21T01:51:16;98999.28;;;18.10;86.73
21234;BME280;10774;42.178;26.578;2022-11-21T01:53:47;99017.44;;;18.09;86.96
21234;BME280;10774;42.178;26.578;2022-11-21T01:56:13;99009.28;;;18.01;86.61
21234;BME280;10774;42.178;26.578;2022-11-21T01:58:40;99026.94;;;18.05;86.58
21234;BME280;10774;42.178;26.578;2022-11-21T02:01:07;98990.06;;;17.86;86.57
21234;BME280;10774;42.178;26.578;2022-11-21T02:03:35;99023.03;;;17.99;86.59
21234;BME280;10774;42.178;26.578;2022-11-21T02:06:02;99019.59;;;17.97;86.21
21234;BME280;10774;42.178;26.578;2022-11-21T02:08:29;99023.16;;;17.98;86.48
21234;BME280;10774;42.178;26.578;2022-11-21T02:13:41;98993.47;;;17.96;85.57
21234;BME280;10774;42.178;26.578;2022-11-21T02:16:07;98999.09;;;18.11;85.12
21234;BME280;10774;42.178;26.578;2022-11-21T02:18:33;98984.84;;;18.09;85.13
21234;BME280;10774;42.178;26.578;2022-11-21T02:21:04;98991.59;;;18.13;85.28
21234;BME280;10774;42.178;26.578;2022-11-21T02:23:38;98980.41;;;18.16;84.27
21234;BME280;10774;42.178;26.578;2022-11-21T02:26:04;98973.63;;;18.12;84.56
21234;BME280;10774;42.178;26.578;2022-11-21T02:28:30;98962.59;;;18.06;83.65
21234;BME280;10774;42.178;26.578;2022-11-21T02:30:55;98962.59;;;18.14;83.20
21234;BME280;10774;42.178;26.578;2022-11-21T02:33:21;98961.75;;;18.21;83.08
21234;BME280;10774;42.178;26.578;2022-11-21T02:35:57;98956.84;;;18.25;83.02
21234;BME280;10774;42.178;26.578;2022-11-21T02:38:35;98966.84;;;18.24;82.79
21234;BME280;10774;42.178;26.578;2022-11-21T02:41:19;98969.22;;;18.27;82.24
21234;BME280;10774;42.178;26.578;2022-11-21T02:46:50;98960.41;;;18.25;82.29
21234;BME280;10774;42.178;26.578;2022-11-21T02:49:23;98961.25;;;18.26;82.82
21234;BME280;10774;42.178;26.578;2022-11-21T02:51:51;98946.63;;;18.19;82.69
21234;BME280;10774;42.178;26.578;2022-11-21T02:54:17;98925.25;;;18.16;82.61
21234;BME280;10774;42.178;26.578;2022-11-21T02:56:42;98933.22;;;18.25;82.48
21234;BME280;10774;42.178;26.578;2022-11-21T02:59:08;98940.16;;;18.28;82.31
21234;BME280;10774;42.178;26.578;2022-11-21T03:01:33;98947.66;;;18.26;82.21
21234;BME280;10774;42.178;26.578;2022-11-21T03:03:58;98942.72;;;18.29;82.44
21234;BME280;10774;42.178;26.578;2022-11-21T03:06:24;98920.50;;;18.26;82.39
21234;BME280;10774;42.178;26.578;2022-11-21T03:08:49;98913.19;;;18.26;82.80
21234;BME280;10774;42.178;26.578;2022-11-21T03:11:15;98910.28;;;18.28;82.46
21234;BME280;10774;42.178;26.578;2022-11-21T03:13:40;98893.50;;;18.24;82.36
21234;BME280;10774;42.178;26.578;2022-11-21T03:16:05;98893.84;;;18.21;82.86
21234;BME280;10774;42.178;26.578;2022-11-21T03:18:31;98902.84;;;18.22;83.08
21234;BME280;10774;42.178;26.578;2022-11-21T03:20:56;98910.09;;;18.29;82.71
21234;BME280;10774;42.178;26.578;2022-11-21T03:23:22;98887.53;;;18.29;82.87
21234;BME280;10774;42.178;26.578;2022-11-21T03:25:47;98894.13;;;18.35;82.74
21234;BME280;10774;42.178;26.578;2022-11-21T03:28:13;98890.75;;;18.41;83.04
21234;BME280;10774;42.178;26.578;2022-11-21T03:30:38;98876.00;;;18.35;84.26
21234;BME280;10774;42.178;26.578;2022-11-21T03:33:03;98854.94;;;18.29;84.07
21234;BME280;10774;42.178;26.578;2022-11-21T03:35:29;98853.25;;;18.28;84.08
21234;BME280;10774;42.178;26.578;2022-11-21T03:37:54;98856.28;;;18.33;84.45
21234;BME280;10774;42.178;26.578;2022-11-21T03:40:20;98870.72;;;18.42;84.22
21234;BME280;10774;42.178;26.578;2022-11-21T03:42:45;98888.38;;;18.46;84.66
21234;BME280;10774;42.178;26.578;2022-11-21T03:45:11;98860.69;;;18.42;85.57
21234;BME280;10774;42.178;26.578;2022-11-21T03:47:36;98855.75;;;18.46;89.06
21234;BME280;10774;42.178;26.578;2022-11-21T03:50:01;98836.16;;;18.19;91.14
21234;BME280;10774;42.178;26.578;2022-11-21T03:52:27;98804.78;;;18.09;91.83
21234;BME280;10774;42.178;26.578;2022-11-21T03:54:52;98815.94;;;18.14;92.29
21234;BME280;10774;42.178;26.578;2022-11-21T03:57:18;98821.38;;;18.14;92.45
21234;BME280;10774;42.178;26.578;2022-11-21T03:59:43;98826.16;;;18.03;92.72
21234;BME280;10774;42.178;26.578;2022-11-21T04:02:09;98809.03;;;17.95;94.13
21234;BME280;10774;42.178;26.578;2022-11-21T04:04:34;98828.38;;;17.92;92.57
21234;BME280;10774;42.178;26.578;2022-11-21T04:06:59;98826.84;;;18.06;92.11
21234;BME280;10774;42.178;26.578;2022-11-21T04:09:25;98814.75;;;18.08;92.14
21234;BME280;10774;42.178;26.578;2022-11-21T04:11:50;98826.13;;;18.12;91.83
21234;BME280;10774;42.178;26.578;2022-11-21T04:14:15;98788.34;;;17.94;94.54
21234;BME280;10774;42.178;26.578;2022-11-21T04:16:41;98812.94;;;17.92;99.10
21234;BME280;10774;42.178;26.578;2022-11-21T04:19:06;98819.75;;;17.80;100.00
21234;BME280;10774;42.178;26.578;2022-11-21T04:21:32;98819.09;;;17.78;99.77
21234;BME280;10774;42.178;26.578;2022-11-21T04:23:57;98844.34;;;17.79;99.41
21234;BME280;10774;42.178;26.578;2022-11-21T04:26:22;98827.19;;;17.70;100.00
21234;BME280;10774;42.178;26.578;2022-11-21T04:28:48;98832.09;;;17.66;100.00
21234;BME280;10774;42.178;26.578;2022-11-21T04:31:13;98844.16;;;17.64;100.00
21234;BME280;10774;42.178;26.578;2022-11-21T04:33:39;98837.72;;;17.57;100.00
21234;BME280;10774;42.178;26.578;2022-11-21T04:36:06;98845.50;;;17.43;100.00
21234;BME280;10774;42.178;26.578;2022-11-21T04:38:31;98845.16;;;17.38;100.00
21234;BME280;10774;42.178;26.578;2022-11-21T04:40:57;98833.81;;;17.35;100.00
21234;BME280;10774;42.178;26.578;2022-11-21T04:43:22;98842.47;;;17.30;100.00
21234;BME280;10774;42.178;26.578;2022-11-21T04:45:47;98870.03;;;17.17;100.00
21234;BME280;10774;42.178;26.578;2022-11-21T04:48:13;98880.31;;;16.97;100.00
21234;BME280;10774;42.178;26.578;2022-11-21T04:50:38;98879.25;;;16.74;100.00
21234;BME280;10774;42.178;26.578;2022-11-21T04:53:04;98849.00;;;16.53;100.00
21234;BME280;10774;42.178;26.578;2022-11-21T04:55:30;98853.75;;;16.59;100.00
21234;BME280;10774;42.178;26.578;2022-11-21T04:57:56;98853.72;;;16.51;100.00
21234;BME280;10774;42.178;26.578;2022-11-21T05:00:22;98830.28;;;16.33;100.00
21234;BME280;10774;42.178;26.578;2022-11-21T05:02:47;98836.69;;;16.32;100.00
21234;BME280;10774;42.178;26.578;2022-11-21T05:05:13;98850.22;;;16.24;100.00
21234;BME280;10774;42.178;26.578;2022-11-21T05:07:39;98835.78;;;16.15;100.00
21234;BME280;10774;42.178;26.578;2022-11-21T05:10:05;98777.38;;;16.13;100.00
21234;BME280;10774;42.178;26.578;2022-11-21T05:12:31;98773.56;;;15.98;100.00
21234;BME280;10774;42.178;26.578;2022-11-21T05:15:15;98801.81;;;15.95;100.00
21234;BME280;10774;42.178;26.578;2022-11-21T05:17:41;98799.28;;;15.93;100.00
21234;BME280;10774;42.178;26.578;2022-11-21T05:20:07;98792.50;;;15.89;100.00
21234;BME280;10774;42.178;26.578;2022-11-21T05:22:32;98786.34;;;15.79;100.00
21234;BME280;10774;42.178;26.578;2022-11-21T05:24:58;98805.22;;;15.71;100.00
21234;BME280;10774;42.178;26.578;2022-11-21T05:27:23;98819.75;;;15.70;100.00
21234;BME280;10774;42.178;26.578;2022-11-21T05:29:48;98823.47;;;15.69;100.00
21234;BME280;10774;42.178;26.578;2022-11-21T05:32:14;98821.84;;;15.58;100.00
21234;BME280;10774;42.178;26.578;2022-11-21T05:34:39;98822.75;;;15.49;100.00
21234;BME280;10774;42.178;26.578;2022-11-21T05:37:05;98844.00;;;15.62;100.00
21234;BME280;10774;42.178;26.578;2022-11-21T05:39:30;98838.22;;;15.57;100.00
21234;BME280;10774;42.178;26.578;2022-11-21T05:41:56;98828.72;;;15.53;100.00
21234;BME280;10774;42.178;26.578;2022-11-21T05:44:21;98833.81;;;15.56;100.00
21234;BME280;10774;42.178;26.578;2022-11-21T05:46:47;98827.41;;;15.57;100.00
21234;BME280;10774;42.178;26.578;2022-11-21T05:49:12;98819.59;;;15.54;100.00
21234;BME280;10774;42.178;26.578;2022-11-21T05:51:38;98821.28;;;15.55;100.00
21234;BME280;10774;42.178;26.578;2022-11-21T05:54:04;98832.66;;;15.58;100.00
21234;BME280;10774;42.178;26.578;2022-11-21T05:56:29;98838.31;;;15.65;100.00
21234;BME280;10774;42.178;26.578;2022-11-21T05:58:56;98841.00;;;15.65;100.00
21234;BME280;10774;42.178;26.578;2022-11-21T06:01:21;98833.75;;;15.65;100.00
21234;BME280;10774;42.178;26.578;2022-11-21T06:04:06;98822.38;;;15.62;100.00
21234;BME280;10774;42.178;26.578;2022-11-21T06:06:33;98833.19;;;15.62;100.00
21234;BME280;10774;42.178;26.578;2022-11-21T06:08:58;98814.41;;;15.60;100.00
21234;BME280;10774;42.178;26.578;2022-11-21T06:11:24;98841.94;;;15.74;100.00
21234;BME280;10774;42.178;26.578;2022-11-21T06:13:51;98821.13;;;15.74;100.00
21234;BME280;10774;42.178;26.578;2022-11-21T06:16:17;98812.00;;;15.75;100.00
21234;BME280;10774;42.178;26.578;2022-11-21T06:18:46;98827.97;;;15.86;100.00
21234;BME280;10774;42.178;26.578;2022-11-21T06:21:16;98828.03;;;15.94;100.00
21234;BME280;10774;42.178;26.578;2022-11-21T06:23:43;98820.75;;;15.95;100.00
21234;BME280;10774;42.178;26.578;2022-11-21T06:26:13;98821.97;;;16.01;100.00
21234;BME280;10774;42.178;26.578;2022-11-21T06:28:40;98818.97;;;16.04;100.00
21234;BME280;10774;42.178;26.578;2022-11-21T06:31:09;98841.06;;;16.25;100.00
21234;BME280;10774;42.178;26.578;2022-11-21T06:33:35;98848.56;;;16.31;100.00
21234;BME280;10774;42.178;26.578;2022-11-21T06:36:05;98860.28;;;16.40;100.00
21234;BME280;10774;42.178;26.578;2022-11-21T06:38:31;98866.94;;;16.54;100.00
21234;BME280;10774;42.178;26.578;2022-11-21T06:40:57;98860.50;;;16.55;100.00
21234;BME280;10774;42.178;26.578;2022-11-21T06:43:22;98869.69;;;16.62;100.00
21234;BME280;10774;42.178;26.578;2022-11-21T06:45:48;98882.31;;;16.79;100.00
21234;BME280;10774;42.178;26.578;2022-11-21T06:48:13;98861.28;;;16.73;100.00
21234;BME280;10774;42.178;26.578;2022-11-21T06:50:39;98868.47;;;16.90;100.00
21234;BME280;10774;42.178;26.578;2022-11-21T06:53:04;98883.97;;;17.14;100.00
21234;BME280;10774;42.178;26.578;2022-11-21T06:55:30;98888.22;;;17.25;100.00
21234;BME280;10774;42.178;26.578;2022-11-21T06:57:57;98874.16;;;17.30;100.00
21234;BME280;10774;42.178;26.578;2022-11-21T07:00:23;98873.78;;;17.16;100.00
21234;BME280;10774;42.178;26.578;2022-11-21T07:02:49;98856.63;;;17.08;100.00
21234;BME280;10774;42.178;26.578;2022-11-21T07:05:14;98861.78;;;17.19;100.00
21234;BME280;10774;42.178;26.578;2022-11-21T07:07:40;98856.53;;;17.25;100.00
21234;BME280;10774;42.178;26.578;2022-11-21T07:10:05;98844.13;;;17.23;100.00
21234;BME280;10774;42.178;26.578;2022-11-21T07:12:33;98836.69;;;17.25;100.00
21234;BME280;10774;42.178;26.578;2022-11-21T07:15:17;98841.94;;;17.27;100.00
21234;BME280;10774;42.178;26.578;2022-11-21T07:17:43;98848.91;;;17.37;100.00
21234;BME280;10774;42.178;26.578;2022-11-21T07:20:09;98850.75;;;17.45;100.00
21234;BME280;10774;42.178;26.578;2022-11-21T07:22:34;98855.34;;;17.44;100.00
21234;BME280;10774;42.178;26.578;2022-11-21T07:25:00;98847.03;;;17.46;100.00
21234;BME280;10774;42.178;26.578;2022-11-21T07:27:25;98840.59;;;17.55;99.48
21234;BME280;10774;42.178;26.578;2022-11-21T07:29:51;98829.56;;;17.65;99.86
21234;BME280;10774;42.178;26.578;2022-11-21T07:32:16;98848.41;;;17.74;96.49
21234;BME280;10774;42.178;26.578;2022-11-21T07:34:41;98821.41;;;17.65;94.61
21234;BME280;10774;42.178;26.578;2022-11-21T07:37:07;98834.69;;;17.84;94.57
21234;BME280;10774;42.178;26.578;2022-11-21T07:39:32;98834.97;;;17.97;94.33
21234;BME280;10774;42.178;26.578;2022-11-21T07:41:58;98859.56;;;18.12;93.00
21234;BME280;10774;42.178;26.578;2022-11-21T07:44:23;98845.84;;;18.06;89.53
21234;BME280;10774;42.178;26.578;2022-11-21T07:46:53;98840.41;;;17.97;90.41
21234;BME280;10774;42.178;26.578;2022-11-21T07:49:18;98858.56;;;18.05;90.26
21234;BME280;10774;42.178;26.578;2022-11-21T07:51:44;98854.31;;;18.02;90.86
21234;BME280;10774;42.178;26.578;2022-11-21T07:54:09;98849.91;;;18.01;91.94
21234;BME280;10774;42.178;26.578;2022-11-21T07:56:34;98855.63;;;18.23;91.99
21234;BME280;10774;42.178;26.578;2022-11-21T07:59:00;98855.78;;;18.29;87.56
21234;BME280;10774;42.178;26.578;2022-11-21T08:01:25;98867.47;;;18.46;85.57
21234;BME280;10774;42.178;26.578;2022-11-21T08:03:51;98846.72;;;18.45;83.32
21234;BME280;10774;42.178;26.578;2022-11-21T08:06:16;98853.69;;;18.48;82.29
21234;BME280;10774;42.178;26.578;2022-11-21T08:08:41;98867.38;;;18.71;82.21
21234;BME280;10774;42.178;26.578;2022-11-21T08:11:07;98867.88;;;18.83;81.19
21234;BME280;10774;42.178;26.578;2022-11-21T08:13:33;98881.22;;;18.92;81.32
21234;BME280;10774;42.178;26.578;2022-11-21T08:16:02;98861.72;;;18.89;80.96
21234;BME280;10774;42.178;26.578;2022-11-21T08:18:27;98862.19;;;18.92;80.61
21234;BME280;10774;42.178;26.578;2022-11-21T08:20:53;98873.22;;;18.99;80.86
21234;BME280;10774;42.178;26.578;2022-11-21T08:23:18;98869.59;;;19.06;79.20
21234;BME280;10774;42.178;26.578;2022-11-21T08:25:44;98861.44;;;19.06;77.32
21234;BME280;10774;42.178;26.578;2022-11-21T08:28:10;98855.50;;;19.03;75.91
21234;BME280;10774;42.178;26.578;2022-11-21T08:30:37;98867.69;;;19.15;77.23
21234;BME280;10774;42.178;26.578;2022-11-21T08:33:03;98856.28;;;19.20;74.32
21234;BME280;10774;42.178;26.578;2022-11-21T08:35:28;98855.06;;;19.22;73.58
21234;BME280;10774;42.178;26.578;2022-11-21T08:37:58;98862.88;;;19.48;74.28
21234;BME280;10774;42.178;26.578;2022-11-21T08:40:28;98854.41;;;19.43;71.73
21234;BME280;10774;42.178;26.578;2022-11-21T08:42:57;98856.03;;;19.52;71.06
21234;BME280;10774;42.178;26.578;2022-11-21T08:45:23;98834.22;;;19.61;71.01
21234;BME280;10774;42.178;26.578;2022-11-21T08:47:50;98840.16;;;19.56;69.70
21234;BME280;10774;42.178;26.578;2022-11-21T08:50:16;98838.31;;;19.56;69.54
21234;BME280;10774;42.178;26.578;2022-11-21T08:52:41;98840.25;;;19.71;69.39
21234;BME280;10774;42.178;26.578;2022-11-21T08:55:07;98865.09;;;19.91;68.20
21234;BME280;10774;42.178;26.578;2022-11-21T08:57:39;98846.81;;;19.99;67.45
21234;BME280;10774;42.178;26.578;2022-11-21T09:00:06;98857.16;;;20.19;67.12
21234;BME280;10774;42.178;26.578;2022-11-21T09:02:32;98846.09;;;20.20;66.19
21234;BME280;10774;42.178;26.578;2022-11-21T09:04:57;98828.78;;;20.13;63.60
21234;BME280;10774;42.178;26.578;2022-11-21T09:07:24;98823.44;;;20.20;61.13
21234;BME280;10774;42.178;26.578;2022-11-21T09:09:49;98817.69;;;20.29;62.89
21234;BME280;10774;42.178;26.578;2022-11-21T09:12:14;98820.91;;;20.33;59.56
21234;BME280;10774;42.178;26.578;2022-11-21T09:14:40;98812.63;;;20.56;59.62
21234;BME280;10774;42.178;26.578;2022-11-21T09:17:24;98815.28;;;20.49;57.45
21234;BME280;10774;42.178;26.578;2022-11-21T09:20:08;98817.53;;;20.60;57.82
21234;BME280;10774;42.178;26.578;2022-11-21T09:22:33;98834.16;;;20.66;56.11
21234;BME280;10774;42.178;26.578;2022-11-21T09:24:59;98824.66;;;20.76;54.32
21234;BME280;10774;42.178;26.578;2022-11-21T09:27:24;98819.47;;;20.67;50.27
21234;BME280;10774;42.178;26.578;2022-11-21T09:29:50;98803.88;;;20.75;52.29
21234;BME280;10774;42.178;26.578;2022-11-21T09:32:15;98834.19;;;21.02;52.63
21234;BME280;10774;42.178;26.578;2022-11-21T09:34:40;98828.41;;;20.75;50.47
21234;BME280;10774;42.178;26.578;2022-11-21T09:37:06;98820.56;;;20.87;51.26
21234;BME280;10774;42.178;26.578;2022-11-21T09:39:31;98821.97;;;20.98;49.70
21234;BME280;10774;42.178;26.578;2022-11-21T09:50:00;98811.06;;;20.98;50.05
21234;BME280;10774;42.178;26.578;2022-11-21T09:55:34;98809.78;;;20.94;51.69
21234;BME280;10774;42.178;26.578;2022-11-21T09:58:03;98809.09;;;20.92;51.15
21234;BME280;10774;42.178;26.578;2022-11-21T10:00:31;98804.13;;;20.95;52.20
21234;BME280;10774;42.178;26.578;2022-11-21T10:02:57;98799.16;;;20.84;53.92
21234;BME280;10774;42.178;26.578;2022-11-21T10:05:57;98787.22;;;20.85;55.52
21234;BME280;10774;42.178;26.578;2022-11-21T10:21:20;98798.63;;;20.29;54.39
21234;BME280;10774;42.178;26.578;2022-11-21T10:26:08;98779.84;;;20.20;54.97
21234;BME280;10774;42.178;26.578;2022-11-21T10:29:00;98775.88;;;20.07;55.65
21234;BME280;10774;42.178;26.578;2022-11-21T10:31:33;98795.53;;;20.18;54.76
21234;BME280;10774;42.178;26.578;2022-11-21T10:34:02;98782.00;;;20.09;54.91
21234;BME280;10774;42.178;26.578;2022-11-21T10:36:38;98775.13;;;20.14;54.55
21234;BME280;10774;42.178;26.578;2022-11-21T10:39:13;98788.97;;;20.27;55.03
21234;BME280;10774;42.178;26.578;2022-11-21T10:41:59;98763.88;;;20.17;55.01
21234;BME280;10774;42.178;26.578;2022-11-21T10:44:28;98788.75;;;20.28;54.85
21234;BME280;10774;42.178;26.578;2022-11-21T10:47:21;98758.91;;;20.20;54.94
21234;BME280;10774;42.178;26.578;2022-11-21T10:52:38;98773.25;;;20.29;55.13
21234;BME280;10774;42.178;26.578;2022-11-21T10:55:10;98762.75;;;20.26;53.63
21234;BME280;10774;42.178;26.578;2022-11-21T10:57:59;98775.59;;;20.32;54.37
21234;BME280;10774;42.178;26.578;2022-11-21T11:00:25;98765.75;;;20.31;54.35
21234;BME280;10774;42.178;26.578;2022-11-21T11:05:27;98782.47;;;20.28;54.26
21234;BME280;10774;42.178;26.578;2022-11-21T11:10:28;98791.75;;;20.19;53.24
21234;BME280;10774;42.178;26.578;2022-11-21T11:12:55;98791.19;;;20.08;50.79
21234;BME280;10774;42.178;26.578;2022-11-21T11:15:56;98799.53;;;19.92;50.92
21234;BME280;10774;42.178;26.578;2022-11-21T11:18:23;98809.13;;;19.88;50.28
21234;BME280;10774;42.178;26.578;2022-11-21T11:20:49;98793.81;;;19.87;50.31
21234;BME280;10774;42.178;26.578;2022-11-21T11:25:55;98790.88;;;19.74;49.50
21234;BME280;10774;42.178;26.578;2022-11-21T11:28:21;98782.72;;;19.74;51.64
21234;BME280;10774;42.178;26.578;2022-11-21T11:30:51;98813.03;;;19.71;51.69
21234;BME280;10774;42.178;26.578;2022-11-21T11:33:37;98807.34;;;19.57;52.61
21234;BME280;10774;42.178;26.578;2022-11-21T11:38:55;98802.81;;;19.27;56.58
21234;BME280;10774;42.178;26.578;2022-11-21T11:41:44;98805.53;;;19.27;58.38
21234;BME280;10774;42.178;26.578;2022-11-21T11:48:01;98800.06;;;18.81;57.57
21234;BME280;10774;42.178;26.578;2022-11-21T11:50:36;98820.13;;;18.80;56.63
21234;BME280;10774;42.178;26.578;2022-11-21T11:53:21;98803.88;;;18.64;57.50
21234;BME280;10774;42.178;26.578;2022-11-21T11:55:52;98821.56;;;18.68;57.75
21234;BME280;10774;42.178;26.578;2022-11-21T11:58:35;98819.16;;;18.65;58.68
21234;BME280;10774;42.178;26.578;2022-11-21T12:06:41;98804.22;;;18.61;59.70
21234;BME280;10774;42.178;26.578;2022-11-21T12:14:53;98794.09;;;18.46;59.68
21234;BME280;10774;42.178;26.578;2022-11-21T12:20:28;98800.84;;;18.50;60.50
21234;BME280;10774;42.178;26.578;2022-11-21T12:22:55;98787.66;;;18.47;60.42
21234;BME280;10774;42.178;26.578;2022-11-21T12:25:26;98806.59;;;18.55;61.22
21234;BME280;10774;42.178;26.578;2022-11-21T12:27:54;98781.19;;;18.48;60.97
21234;BME280;10774;42.178;26.578;2022-11-21T12:33:05;98781.84;;;18.50;63.35
21234;BME280;10774;42.178;26.578;2022-11-21T12:41:31;98805.94;;;18.62;65.99
21234;BME280;10774;42.178;26.578;2022-11-21T12:56:49;98811.72;;;18.50;70.42
21234;BME280;10774;42.178;26.578;2022-11-21T12:59:17;98783.63;;;18.35;70.55
21234;BME280;10774;42.178;26.578;2022-11-21T13:04:18;98805.97;;;18.45;69.49
21234;BME280;10774;42.178;26.578;2022-11-21T13:06:48;98809.06;;;18.42;67.25
21234;BME280;10774;42.178;26.578;2022-11-21T13:09:18;98783.97;;;18.32;67.20
21234;BME280;10774;42.178;26.578;2022-11-21T13:12:02;98785.00;;;18.31;67.16
21234;BME280;10774;42.178;26.578;2022-11-21T13:20:23;98796.72;;;18.32;65.24
21234;BME280;10774;42.178;26.578;2022-11-21T13:22:53;98794.84;;;18.32;65.83
21234;BME280;10774;42.178;26.578;2022-11-21T13:38:30;98814.97;;;17.98;67.80
21234;BME280;10774;42.178;26.578;2022-11-21T13:40:56;98813.94;;;17.91;69.03
21234;BME280;10774;42.178;26.578;2022-11-21T13:43:40;98812.13;;;17.84;69.64
21234;BME280;10774;42.178;26.578;2022-11-21T13:46:06;98807.16;;;17.87;69.95
21234;BME280;10774;42.178;26.578;2022-11-21T13:51:51;98800.88;;;17.70;68.34
21234;BME280;10774;42.178;26.578;2022-11-21T14:08:12;98861.13;;;17.41;68.50
21234;BME280;10774;42.178;26.578;2022-11-21T14:10:38;98864.16;;;17.30;70.75
21234;BME280;10774;42.178;26.578;2022-11-21T14:13:03;98869.94;;;17.35;72.31
21234;BME280;10774;42.178;26.578;2022-11-21T14:18:29;98847.56;;;17.74;77.89
21234;BME280;10774;42.178;26.578;2022-11-21T14:20:57;98846.03;;;17.96;77.20
21234;BME280;10774;42.178;26.578;2022-11-21T14:23:27;98823.81;;;17.84;78.17
21234;BME280;10774;42.178;26.578;2022-11-21T14:26:13;98843.13;;;17.97;78.99
21234;BME280;10774;42.178;26.578;2022-11-21T14:28:39;98842.13;;;17.82;80.02
21234;BME280;10774;42.178;26.578;2022-11-21T14:31:06;98843.47;;;17.86;80.85
21234;BME280;10774;42.178;26.578;2022-11-21T14:33:34;98858.09;;;17.85;80.56
21234;BME280;10774;42.178;26.578;2022-11-21T14:36:21;98846.19;;;17.62;79.84
21234;BME280;10774;42.178;26.578;2022-11-21T14:46:21;98853.88;;;16.83;83.34
21234;BME280;10774;42.178;26.578;2022-11-21T14:48:46;98848.69;;;16.56;83.42
21234;BME280;10774;42.178;26.578;2022-11-21T14:51:16;98853.75;;;16.59;83.47
21234;BME280;10774;42.178;26.578;2022-11-21T14:53:44;98836.06;;;16.38;84.45
21234;BME280;10774;42.178;26.578;2022-11-21T14:56:20;98842.78;;;16.26;83.04
21234;BME280;10774;42.178;26.578;2022-11-21T14:58:46;98833.06;;;16.15;83.45
21234;BME280;10774;42.178;26.578;2022-11-21T15:01:20;98854.56;;;16.17;84.17
21234;BME280;10774;42.178;26.578;2022-11-21T15:04:06;98842.31;;;16.05;84.03
21234;BME280;10774;42.178;26.578;2022-11-21T15:06:41;98845.66;;;15.99;83.43